Time;durP1;ratioP1;P1;durP2;ratioP2;P2;SDS_P1;SDS_P2;PMS_P1;PMS_P2;Temp;Humidity;BMP_temperature;BMP_pressure;BME280_temperature;BME280_humidity;BME280_pressure;Samples;Min_cycle;Max_cycle;Signal;HPM_P1;HPM_P2
2022/04/30 00:03:58;;;;;;;11.63;4.00;;;;;;;7.02;100.00;102629.56;10166801;28;20073;-66
2022/04/30 00:08:54;;;;;;;14.43;4.60;;;;;;;7.05;100.00;102628.25;10173124;28;20054;-65
2022/04/30 00:13:51;;;;;;;12.27;4.93;;;;;;;7.13;100.00;102620.50;10165963;28;20464;-66
2022/04/30 00:18:47;;;;;;;16.15;3.45;;;;;;;7.16;100.00;102619.19;10161778;28;20042;-65
2022/04/30 00:23:44;;;;;;;12.05;3.70;;;;;;;7.15;100.00;102617.56;10163187;28;20042;-66
2022/04/30 00:28:41;;;;;;;11.50;5.20;;;;;;;7.10;100.00;102615.56;10158153;28;20136;-66
2022/04/30 00:33:38;;;;;;;9.77;3.80;;;;;;;6.98;100.00;102611.28;10162672;28;20573;-65
2022/04/30 00:38:34;;;;;;;16.60;4.63;;;;;;;7.04;100.00;102610.28;10197583;28;20073;-66
2022/04/30 00:43:31;;;;;;;9.93;4.18;;;;;;;7.03;100.00;102608.63;10197298;28;20080;-66
2022/04/30 00:48:28;;;;;;;12.88;5.07;;;;;;;6.91;100.00;102601.38;10192475;28;20086;-65
2022/04/30 00:53:25;;;;;;;7.50;3.72;;;;;;;6.94;100.00;102595.47;10160432;28;20076;-66
2022/04/30 00:58:23;;;;;;;8.57;4.10;;;;;;;6.88;100.00;102591.00;10180837;28;20129;-66
2022/04/30 01:03:19;;;;;;;11.27;4.20;;;;;;;6.87;100.00;102588.53;10159640;28;20043;-65
2022/04/30 01:08:17;;;;;;;13.95;4.57;;;;;;;6.84;100.00;102580.88;10179103;28;20138;-66
2022/04/30 01:13:16;;;;;;;10.85;4.88;;;;;;;6.87;100.00;102583.94;10156978;28;20504;-66
2022/04/30 01:18:13;;;;;;;9.55;4.47;;;;;;;6.80;100.00;102576.97;10175248;28;20165;-66
2022/04/30 01:23:10;;;;;;;12.63;5.45;;;;;;;6.78;100.00;102577.25;10156938;28;20053;-66
2022/04/30 01:28:07;;;;;;;15.32;5.68;;;;;;;6.76;100.00;102582.09;10169252;28;20082;-65
2022/04/30 01:38:20;;;;;;;12.70;4.72;;;;;;;6.71;100.00;102576.59;10154581;28;20413;-66
2022/04/30 01:43:17;;;;;;;13.73;5.25;;;;;;;6.67;100.00;102573.53;10156587;28;20120;-65
2022/04/30 01:48:14;;;;;;;11.95;6.30;;;;;;;6.78;100.00;102563.66;10154660;28;20050;-66
2022/04/30 01:53:11;;;;;;;14.43;5.53;;;;;;;6.73;100.00;102566.31;10155330;28;20055;-66
2022/04/30 01:58:08;;;;;;;11.55;4.40;;;;;;;6.69;100.00;102556.97;10167836;28;20190;-66
2022/04/30 02:03:09;;;;;;;10.05;4.72;;;;;;;6.62;100.00;102553.59;10194537;28;20538;-67
2022/04/30 02:08:15;;;;;;;8.07;4.63;;;;;;;6.67;100.00;102545.53;10193233;28;20112;-66
2022/04/30 02:13:13;;;;;;;14.85;5.60;;;;;;;6.65;100.00;102547.66;10194086;28;20075;-66
2022/04/30 02:18:14;;;;;;;13.95;5.75;;;;;;;6.62;100.00;102542.72;10192681;28;20120;-66
2022/04/30 02:23:11;;;;;;;13.77;6.40;;;;;;;6.48;100.00;102543.03;10193800;28;20046;-66
2022/04/30 02:28:08;;;;;;;16.00;7.55;;;;;;;6.56;100.00;102532.84;10153274;28;20409;-65
2022/04/30 02:33:10;;;;;;;14.88;7.20;;;;;;;6.47;100.00;102530.50;10161420;28;20068;-66
2022/04/30 02:38:10;;;;;;;13.85;7.20;;;;;;;6.58;100.00;102525.25;10192883;28;20096;-66
2022/04/30 02:43:10;;;;;;;13.68;7.05;;;;;;;6.39;100.00;102516.53;10192978;28;20046;-66
2022/04/30 02:48:08;;;;;;;20.67;7.70;;;;;;;6.32;100.00;102508.53;10192631;28;20050;-66
2022/04/30 02:53:05;;;;;;;15.73;6.68;;;;;;;6.33;100.00;102507.44;10193459;28;20046;-66
2022/04/30 03:03:17;;;;;;;13.27;7.10;;;;;;;6.31;100.00;102509.56;10157355;28;20117;-66
2022/04/30 03:08:17;;;;;;;15.88;8.55;;;;;;;6.28;100.00;102504.66;10199994;28;20048;-65
2022/04/30 03:13:15;;;;;;;14.25;7.97;;;;;;;6.16;100.00;102502.00;10163036;28;20081;-66
2022/04/30 03:23:28;;;;;;;13.15;7.97;;;;;;;6.22;100.00;102500.19;10200419;28;20073;-66
2022/04/30 03:28:25;;;;;;;27.20;12.45;;;;;;;6.19;100.00;102500.69;10198898;28;20050;-66
2022/04/30 03:33:21;;;;;;;18.52;8.80;;;;;;;6.11;100.00;102502.72;10199891;28;20085;-66
2022/04/30 03:38:18;;;;;;;18.75;7.95;;;;;;;6.06;100.00;102491.78;10199865;28;20104;-66
2022/04/30 03:43:18;;;;;;;15.25;8.55;;;;;;;5.96;100.00;102497.00;10199634;28;20073;-65
2022/04/30 03:48:14;;;;;;;19.85;8.43;;;;;;;6.06;100.00;102486.34;10214563;28;20074;-66
2022/04/30 03:53:11;;;;;;;17.52;8.77;;;;;;;5.98;100.00;102494.88;10199096;28;20574;-65
2022/04/30 03:58:07;;;;;;;20.02;9.30;;;;;;;5.93;100.00;102492.03;10185324;28;20046;-66
2022/04/30 04:03:04;;;;;;;17.05;7.80;;;;;;;5.92;100.00;102490.41;10160246;28;20565;-65
2022/04/30 04:08:00;;;;;;;14.98;7.97;;;;;;;5.93;100.00;102497.47;10184120;28;20051;-65
2022/04/30 04:17:37;;;;;;;13.82;8.13;;;;;;;6.00;100.00;102503.59;10159028;28;20046;-65
2022/04/30 04:18:13;;;;;;;17.65;8.02;;;;;;;6.03;100.00;102505.81;10159129;28;20073;-65
2022/04/30 04:23:10;;;;;;;13.35;6.93;;;;;;;5.99;100.00;102501.16;10160121;28;20574;-66
2022/04/30 04:28:06;;;;;;;13.88;7.70;;;;;;;5.97;100.00;102509.53;10174497;28;20047;-66
2022/04/30 04:33:03;;;;;;;16.20;8.00;;;;;;;5.83;100.00;102513.56;10158689;28;20050;-66
2022/04/30 04:37:59;;;;;;;13.52;7.07;;;;;;;5.98;100.00;102515.78;10158014;28;20595;-65
2022/04/30 04:42:56;;;;;;;14.45;6.72;;;;;;;5.96;100.00;102513.28;10158032;28;20082;-65
2022/04/30 04:47:53;;;;;;;12.43;7.05;;;;;;;5.98;100.00;102511.16;10196129;28;20050;-65
2022/04/30 04:52:49;;;;;;;13.80;6.70;;;;;;;6.01;100.00;102510.69;10196942;28;20049;-65
2022/04/30 04:57:46;;;;;;;10.85;6.35;;;;;;;6.01;100.00;102499.84;10196987;28;20080;-66
2022/04/30 05:02:43;;;;;;;13.88;5.43;;;;;;;6.02;100.00;102515.06;10159924;28;20109;-65
2022/04/30 05:07:40;;;;;;;10.50;6.10;;;;;;;6.00;100.00;102509.03;10192995;28;20558;-65
2022/04/30 05:12:37;;;;;;;14.25;6.28;;;;;;;6.13;100.00;102516.06;10157029;28;20054;-66
2022/04/30 05:17:33;;;;;;;11.43;5.95;;;;;;;6.07;100.00;102526.00;10184405;28;20101;-66
2022/04/30 05:22:30;;;;;;;10.20;5.85;;;;;;;6.09;100.00;102518.44;10156786;28;20104;-65
2022/04/30 05:27:26;;;;;;;9.93;5.40;;;;;;;6.18;100.00;102527.03;10163001;28;20066;-65
2022/04/30 05:32:22;;;;;;;12.27;6.00;;;;;;;6.23;100.00;102518.16;10156199;28;20445;-65
2022/04/30 05:37:19;;;;;;;10.77;5.53;;;;;;;6.09;100.00;102523.06;10189515;28;20563;-65
2022/04/30 05:42:15;;;;;;;11.60;5.35;;;;;;;6.11;100.00;102527.16;10180625;28;20183;-65
2022/04/30 05:47:12;;;;;;;8.52;4.40;;;;;;;6.18;100.00;102527.03;10188339;28;20843;-65
2022/04/30 05:52:08;;;;;;;12.40;5.10;;;;;;;6.17;100.00;102529.97;10180649;28;20077;-65
2022/04/30 05:57:05;;;;;;;10.60;5.07;;;;;;;6.28;100.00;102526.38;10187128;28;20080;-65
2022/04/30 06:02:01;;;;;;;11.05;4.43;;;;;;;6.26;100.00;102529.34;10165357;28;20054;-65
2022/04/30 06:07:04;;;;;;;;;;;;;;;6.34;100.00;102525.41;10183876;28;20588;-65
2022/04/30 06:12:00;;;;;;;11.52;4.63;;;;;;;6.42;100.00;102533.16;10154032;28;19925;-66
2022/04/30 06:16:58;;;;;;;13.00;4.53;;;;;;;6.60;100.00;102528.56;10171087;28;20565;-65
2022/04/30 06:21:54;;;;;;;9.90;3.90;;;;;;;6.63;100.00;102533.50;10154777;28;20598;-66
2022/04/30 06:26:51;;;;;;;8.40;4.07;;;;;;;6.76;100.00;102533.16;10176408;28;20085;-65
2022/04/30 06:31:47;;;;;;;7.38;3.50;;;;;;;6.81;100.00;102535.16;10152962;28;20050;-65
2022/04/30 06:36:43;;;;;;;9.48;3.65;;;;;;;6.99;100.00;102539.50;10155875;28;20519;-65
2022/04/30 06:41:40;;;;;;;7.43;3.63;;;;;;;7.13;100.00;102538.09;10154405;28;20133;-65
2022/04/30 06:46:37;;;;;;;7.20;3.13;;;;;;;7.22;100.00;102531.16;10182845;28;20070;-65
2022/04/30 06:51:34;;;;;;;9.15;4.38;;;;;;;7.37;100.00;102528.63;10190368;28;20153;-65
2022/04/30 07:02:01;;;;;;;6.22;3.63;;;;;;;7.56;100.00;102531.03;10169273;28;20043;-65
2022/04/30 07:06:59;;;;;;;7.93;3.60;;;;;;;7.75;100.00;102529.66;10184902;28;20100;-65
2022/04/30 07:11:56;;;;;;;10.15;3.35;;;;;;;7.92;100.00;102526.84;10165356;28;20457;-66
2022/04/30 07:16:52;;;;;;;11.35;3.60;;;;;;;8.13;100.00;102529.78;10183926;28;20121;-65
2022/04/30 07:21:49;;;;;;;7.05;3.42;;;;;;;8.23;100.00;102525.25;10164995;28;20093;-65
2022/04/30 07:26:45;;;;;;;7.57;2.95;;;;;;;8.43;100.00;102524.66;10183100;28;20046;-66
2022/04/30 07:31:41;;;;;;;6.10;2.80;;;;;;;8.64;100.00;102531.09;10156432;28;20559;-65
2022/04/30 07:36:39;;;;;;;9.68;3.22;;;;;;;8.72;100.00;102529.78;10181919;28;20528;-65
2022/04/30 07:41:36;;;;;;;7.72;3.33;;;;;;;8.82;100.00;102531.78;10153388;28;20512;-66
2022/04/30 07:46:32;;;;;;;7.72;3.13;;;;;;;8.92;100.00;102531.03;10172104;28;20070;-66
2022/04/30 07:51:42;;;;;;;8.35;3.38;;;;;;;8.95;100.00;102535.97;10155914;28;20042;-65
2022/04/30 07:56:38;;;;;;;5.72;2.92;;;;;;;9.05;100.00;102534.13;10160697;28;20050;-65
2022/04/30 08:01:34;;;;;;;7.88;3.30;;;;;;;9.13;100.00;102529.25;10159601;28;20101;-65
2022/04/30 08:06:31;;;;;;;6.07;2.67;;;;;;;9.20;100.00;102529.84;10187827;28;20120;-65
2022/04/30 08:11:27;;;;;;;10.45;3.22;;;;;;;9.44;100.00;102522.84;10197893;28;20077;-66
2022/04/30 08:16:24;;;;;;;7.10;2.33;;;;;;;9.68;100.00;102522.44;10185796;28;20066;-66
2022/04/30 08:21:21;;;;;;;6.72;2.45;;;;;;;9.89;100.00;102529.59;10186078;28;20053;-66
2022/04/30 08:26:17;;;;;;;6.60;3.30;;;;;;;10.07;100.00;102524.72;10185226;28;20068;-65
2022/04/30 08:31:14;;;;;;;6.93;2.40;;;;;;;10.21;100.00;102520.38;10169071;28;20078;-65
2022/04/30 08:36:11;;;;;;;9.25;2.63;;;;;;;10.32;100.00;102516.56;10183482;28;20049;-66
2022/04/30 08:41:14;;;;;;;8.23;2.58;;;;;;;10.38;100.00;102513.88;10160095;28;20050;-65
2022/04/30 08:46:13;;;;;;;7.53;2.13;;;;;;;10.59;100.00;102518.25;10167381;28;20419;-66
2022/04/30 08:51:10;;;;;;;6.93;2.00;;;;;;;10.82;100.00;102513.31;10157231;28;20053;-66
2022/04/30 08:56:07;;;;;;;6.55;1.70;;;;;;;10.93;100.00;102510.28;10166815;28;20038;-65
2022/04/30 09:01:07;;;;;;;4.72;1.95;;;;;;;11.07;100.00;102507.78;10156441;28;20082;-64
2022/04/30 09:06:04;;;;;;;4.63;1.77;;;;;;;11.18;95.70;102510.50;10164026;28;20073;-64
2022/04/30 09:11:07;;;;;;;6.60;1.95;;;;;;;11.49;100.00;102492.03;10156592;28;20070;-65
2022/04/30 09:16:04;;;;;;;6.72;1.55;;;;;;;11.65;96.10;102496.34;10162495;28;20070;-65
2022/04/30 09:21:01;;;;;;;4.75;1.92;;;;;;;11.63;90.65;102500.44;10156177;28;20057;-65
2022/04/30 09:25:58;;;;;;;5.40;1.80;;;;;;;11.50;90.05;102497.22;10179640;28;20065;-64
2022/04/30 09:31:13;;;;;;;5.60;1.70;;;;;;;11.70;90.41;102490.03;10195493;28;20471;-65
2022/04/30 09:41:28;;;;;;;5.70;1.40;;;;;;;11.99;91.60;102482.72;10154918;28;20096;-64
2022/04/30 09:46:25;;;;;;;7.25;1.90;;;;;;;11.78;86.51;102492.16;10183301;28;20080;-65
2022/04/30 09:56:44;;;;;;;3.80;1.38;;;;;;;12.09;79.50;102481.03;10183835;28;20600;-64
2022/04/30 10:01:42;;;;;;;6.40;1.83;;;;;;;12.40;75.36;102485.19;10172075;28;20128;-65
2022/04/30 10:06:41;;;;;;;3.17;1.48;;;;;;;12.46;72.66;102474.16;10183460;28;20053;-65
2022/04/30 10:12:07;;;;;;;6.45;1.80;;;;;;;12.75;77.61;102472.25;10170203;28;20504;-65
2022/04/30 10:17:12;;;;;;;4.07;1.70;;;;;;;13.72;74.43;102472.25;10184403;28;20567;-65
2022/04/30 10:22:17;;;;;;;8.98;1.83;;;;;;;14.40;70.25;102466.22;10154304;28;20477;-64
2022/04/30 10:27:17;;;;;;;4.63;1.80;;;;;;;15.47;63.38;102457.84;10172173;28;20054;-65
2022/04/30 10:32:33;;;;;;;5.93;2.30;;;;;;;16.11;53.22;102462.50;10154332;28;20538;-65
2022/04/30 10:37:34;;;;;;;8.88;1.83;;;;;;;17.27;52.59;102442.28;10159499;28;20218;-65
2022/04/30 10:42:41;;;;;;;5.65;1.65;;;;;;;17.75;45.45;102442.19;10154330;28;20077;-65
2022/04/30 10:47:58;;;;;;;5.40;1.50;;;;;;;18.17;42.19;102437.03;10159059;28;20516;-65
2022/04/30 10:52:55;;;;;;;5.53;2.50;;;;;;;17.73;46.73;102430.69;10153346;28;20480;-64
2022/04/30 10:57:52;;;;;;;6.95;2.13;;;;;;;17.64;41.84;102435.38;10153563;28;20081;-65
2022/04/30 11:02:49;;;;;;;4.18;2.00;;;;;;;18.04;42.14;102422.22;10152775;28;20096;-65
2022/04/30 11:07:46;;;;;;;7.03;2.45;;;;;;;18.83;43.67;102425.59;10190527;28;20049;-64
2022/04/30 11:12:44;;;;;;;5.55;2.38;;;;;;;18.71;39.27;102417.16;10168600;28;20096;-65
2022/04/30 11:17:47;;;;;;;5.15;1.83;;;;;;;17.25;42.61;102428.81;10187554;28;20046;-64
2022/04/30 11:22:57;;;;;;;4.38;1.80;;;;;;;17.38;41.79;102410.44;10153731;28;20080;-65
2022/04/30 11:27:57;;;;;;;4.65;2.03;;;;;;;17.19;42.35;102407.97;10191639;28;20050;-65
2022/04/30 11:32:54;;;;;;;4.57;2.08;;;;;;;18.03;43.28;102397.63;10160825;28;20054;-64
2022/04/30 11:37:50;;;;;;;4.78;2.28;;;;;;;18.38;40.31;102397.53;10177556;28;20077;-65
2022/04/30 11:43:01;;;;;;;6.28;1.70;;;;;;;18.34;40.91;102391.88;10160685;28;20714;-65
2022/04/30 11:48:03;;;;;;;6.85;2.20;;;;;;;18.02;40.95;102407.06;10160076;28;20038;-64
2022/04/30 11:53:00;;;;;;;9.10;2.25;;;;;;;16.78;42.11;102395.34;10159349;28;20388;-64
2022/04/30 11:58:03;;;;;;;6.18;2.75;;;;;;;15.68;43.35;102394.78;10169388;28;20077;-65
2022/04/30 12:03:27;;;;;;;5.60;2.28;;;;;;;15.24;45.18;102390.81;10161485;28;20053;-64
2022/04/30 12:08:28;;;;;;;4.18;1.65;;;;;;;15.44;46.50;102386.00;10198797;28;20053;-64
2022/04/30 12:13:25;;;;;;;5.95;2.03;;;;;;;15.23;45.20;102386.44;10170964;28;20057;-64
2022/04/30 12:29:23;;;;;;;5.60;1.75;;;;;;;15.14;47.09;102371.78;10179545;28;20077;-64
2022/04/30 12:34:21;;;;;;;5.15;2.15;;;;;;;15.00;45.10;102370.97;10168398;28;20449;-64
2022/04/30 12:39:20;;;;;;;4.95;2.50;;;;;;;14.98;49.29;102370.47;10165940;28;20078;-64
2022/04/30 12:44:17;;;;;;;4.85;2.42;;;;;;;14.86;51.30;102371.78;10167091;28;20073;-64
2022/04/30 12:49:14;;;;;;;6.32;2.85;;;;;;;14.84;53.06;102364.97;10159265;28;20038;-64
2022/04/30 12:54:13;;;;;;;4.95;2.47;;;;;;;14.96;52.78;102356.19;10167366;28;20050;-64
2022/04/30 12:59:10;;;;;;;4.72;2.30;;;;;;;15.02;53.75;102360.47;10196836;28;20092;-64
2022/04/30 13:04:08;;;;;;;5.57;2.45;;;;;;;15.00;52.67;102351.69;10185143;28;20084;-64
2022/04/30 13:14:20;;;;;;;4.97;2.10;;;;;;;15.46;50.39;102353.44;10180133;28;20049;-64
2022/04/30 13:19:16;;;;;;;7.45;3.28;;;;;;;15.26;49.71;102355.50;10190818;28;20097;-64
2022/04/30 13:24:16;;;;;;;4.32;1.80;;;;;;;15.48;49.41;102351.16;10165222;28;20313;-64
2022/04/30 13:29:12;;;;;;;5.45;2.17;;;;;;;15.31;48.55;102340.81;10184703;28;20046;-64
2022/04/30 13:34:10;;;;;;;5.05;2.10;;;;;;;15.43;49.36;102332.78;10163571;28;20577;-62
2022/04/30 13:39:06;;;;;;;3.95;2.05;;;;;;;15.33;48.38;102328.34;10168137;28;20117;-63
2022/04/30 13:44:03;;;;;;;6.75;2.25;;;;;;;15.21;48.10;102328.06;10163111;28;20780;-63
2022/04/30 13:49:00;;;;;;;9.13;3.10;;;;;;;15.02;46.71;102338.44;10157552;28;20593;-63
2022/04/30 13:53:56;;;;;;;6.53;3.17;;;;;;;15.09;48.64;102322.28;10158483;28;20516;-63
2022/04/30 13:58:53;;;;;;;7.32;2.35;;;;;;;15.06;49.61;102322.91;10155201;28;20130;-63
2022/04/30 14:03:49;;;;;;;5.00;1.92;;;;;;;15.12;52.38;102335.44;10160731;28;20077;-62
2022/04/30 14:08:45;;;;;;;8.02;2.58;;;;;;;14.82;52.74;102326.72;10160430;28;20046;-62
2022/04/30 14:18:57;;;;;;;6.50;2.17;;;;;;;15.39;51.18;102318.03;10154075;28;20089;-62
2022/04/30 14:23:53;;;;;;;3.78;1.90;;;;;;;15.42;49.52;102308.31;10154971;28;20050;-63
2022/04/30 14:28:50;;;;;;;3.92;2.00;;;;;;;15.55;49.99;102307.47;10153635;28;20554;-62
2022/04/30 14:33:47;;;;;;;5.93;2.30;;;;;;;15.80;50.33;102297.75;10160546;28;20084;-63
2022/04/30 14:38:47;;;;;;;5.82;2.70;;;;;;;15.89;51.94;102308.84;10193865;28;20061;-63
2022/04/30 14:43:48;;;;;;;7.78;2.85;;;;;;;15.61;48.50;102306.19;10170531;28;20073;-63
2022/04/30 14:48:44;;;;;;;6.40;1.98;;;;;;;15.56;50.22;102307.13;10193163;28;20038;-63
2022/04/30 14:53:41;;;;;;;5.30;1.90;;;;;;;15.46;53.65;102298.31;10170128;28;20081;-63
2022/04/30 14:58:39;;;;;;;3.95;1.80;;;;;;;15.61;54.10;102306.19;10185825;28;20479;-63
2022/04/30 15:03:35;;;;;;;5.50;2.38;;;;;;;15.51;52.85;102301.75;10166062;28;20056;-63
2022/04/30 15:08:32;;;;;;;4.28;2.25;;;;;;;15.30;53.32;102312.44;10187733;28;20050;-62
2022/04/30 15:13:28;;;;;;;4.25;2.10;;;;;;;15.46;56.44;102301.88;10164879;28;20095;-62
2022/04/30 15:18:27;;;;;;;6.00;2.17;;;;;;;15.33;53.28;102300.78;10182501;28;20057;-62
2022/04/30 15:23:23;;;;;;;5.93;2.55;;;;;;;15.00;54.22;102304.88;10163589;28;20038;-62
2022/04/30 15:28:20;;;;;;;8.00;3.22;;;;;;;14.72;54.72;102307.66;10180961;28;20488;-63
2022/04/30 15:33:17;;;;;;;4.53;1.80;;;;;;;14.49;57.76;102299.28;10162470;28;20523;-62
2022/04/30 15:38:14;;;;;;;3.45;1.90;;;;;;;14.50;56.56;102300.91;10176737;28;20053;-62
2022/04/30 15:43:10;;;;;;;5.68;2.30;;;;;;;14.28;58.51;102298.03;10161841;28;20051;-62
2022/04/30 15:58:37;;;;;;;6.10;2.28;;;;;;;14.41;61.19;102289.00;10161467;28;20560;-62
2022/04/30 16:03:34;;;;;;;5.70;2.08;;;;;;;14.33;63.34;102289.69;10163640;28;20520;-61
2022/04/30 16:08:32;;;;;;;6.28;2.38;;;;;;;14.14;68.37;102286.22;10198185;28;20584;-62
2022/04/30 16:13:29;;;;;;;6.60;2.67;;;;;;;14.14;69.44;102289.78;10197551;28;20065;-61
2022/04/30 16:18:25;;;;;;;6.82;3.42;;;;;;;14.13;70.81;102284.56;10198293;28;20555;-62
2022/04/30 16:23:22;;;;;;;7.85;3.00;;;;;;;14.12;69.06;102293.97;10161180;28;20738;-62
2022/04/30 16:28:18;;;;;;;7.65;3.30;;;;;;;14.17;70.49;102291.09;10188162;28;20085;-63
2022/04/30 16:33:21;;;;;;;8.57;3.17;;;;;;;14.45;66.45;102283.69;10160810;28;20129;-62
2022/04/30 16:38:17;;;;;;;6.82;2.80;;;;;;;14.31;65.42;102280.91;10176613;28;20125;-63
2022/04/30 16:43:14;;;;;;;6.22;2.53;;;;;;;14.12;65.21;102289.25;10159564;28;20046;-62
2022/04/30 16:48:10;;;;;;;3.97;2.35;;;;;;;14.04;67.11;102282.53;10167537;28;20069;-62
2022/04/30 16:53:07;;;;;;;4.63;2.55;;;;;;;13.83;67.55;102287.59;10158435;28;20503;-62
2022/04/30 16:58:03;;;;;;;5.40;2.38;;;;;;;13.65;67.50;102289.25;10167323;28;20121;-62
2022/04/30 17:03:00;;;;;;;6.18;2.95;;;;;;;13.54;70.00;102285.03;10157767;28;20039;-62
2022/04/30 17:07:58;;;;;;;6.35;2.58;;;;;;;13.48;72.48;102286.22;10196114;28;20522;-62
2022/04/30 17:12:55;;;;;;;6.18;2.53;;;;;;;13.50;72.73;102289.50;10189171;28;20089;-62
2022/04/30 17:17:52;;;;;;;5.00;2.95;;;;;;;13.90;67.76;102281.66;10195589;28;20440;-62
2022/04/30 17:22:49;;;;;;;6.03;2.40;;;;;;;13.89;63.94;102286.38;10184674;28;20504;-62
2022/04/30 17:27:48;;;;;;;4.95;2.15;;;;;;;13.83;60.77;102275.75;10194697;28;20169;-62
2022/04/30 17:38:01;;;;;;;5.25;1.90;;;;;;;13.64;59.18;102279.38;10155760;28;20066;-61
2022/04/30 17:42:59;;;;;;;4.90;2.10;;;;;;;13.67;58.12;102284.28;10156567;28;20582;-62
2022/04/30 17:47:55;;;;;;;7.38;2.00;;;;;;;13.56;54.64;102284.75;10186622;28;20476;-62
2022/04/30 17:52:52;;;;;;;7.32;1.90;;;;;;;13.56;54.58;102276.50;10155802;28;20046;-62
2022/04/30 17:57:48;;;;;;;7.13;1.70;;;;;;;13.53;53.86;102283.44;10193496;28;20498;-62
2022/04/30 18:02:45;;;;;;;4.53;1.50;;;;;;;13.38;54.57;102286.41;10195737;28;20045;-62
2022/04/30 18:07:42;;;;;;;6.32;1.60;;;;;;;13.25;55.97;102277.78;10176451;28;20043;-61
2022/04/30 18:12:38;;;;;;;4.88;1.77;;;;;;;13.23;56.66;102288.25;10154923;28;20104;-62
2022/04/30 18:17:35;;;;;;;4.35;1.38;;;;;;;12.98;55.31;102283.13;10156779;28;20066;-62
2022/04/30 18:22:31;;;;;;;11.88;4.80;;;;;;;12.90;57.16;102297.50;10154708;28;20042;-61
2022/04/30 18:27:28;;;;;;;15.73;9.23;;;;;;;12.81;61.55;102295.44;10190013;28;20069;-62
2022/04/30 18:32:25;;;;;;;8.45;3.97;;;;;;;12.71;64.50;102300.22;10174386;28;20558;-62
2022/04/30 18:37:21;;;;;;;10.10;5.10;;;;;;;12.67;66.34;102310.97;10188903;28;20066;-61
2022/04/30 18:42:18;;;;;;;7.38;3.28;;;;;;;12.44;73.70;102307.13;10159842;28;20073;-62
2022/04/30 18:47:15;;;;;;;7.85;3.85;;;;;;;12.40;77.66;102320.59;10186833;28;20103;-62
2022/04/30 18:52:11;;;;;;;7.05;3.78;;;;;;;12.18;82.04;102321.13;10154488;28;20073;-61
2022/04/30 19:02:26;;;;;;;12.30;5.72;;;;;;;11.88;88.81;102333.19;10154228;28;20046;-62
2022/04/30 19:07:22;;;;;;;10.98;5.63;;;;;;;11.81;90.96;102335.38;10155827;28;20053;-62
2022/04/30 19:12:19;;;;;;;13.73;6.57;;;;;;;11.87;91.51;102331.53;10154366;28;20492;-63
2022/04/30 19:17:16;;;;;;;9.13;5.00;;;;;;;11.65;94.24;102340.19;10188710;28;20081;-62
2022/04/30 19:22:13;;;;;;;15.25;8.15;;;;;;;11.59;95.99;102347.59;10193758;28;20084;-62
2022/04/30 19:27:09;;;;;;;14.57;6.47;;;;;;;11.56;97.97;102341.88;10190169;28;20157;-63
2022/04/30 19:32:06;;;;;;;10.82;5.07;;;;;;;11.50;99.15;102341.09;10188547;28;20072;-62
2022/04/30 19:37:04;;;;;;;8.85;4.75;;;;;;;11.51;98.89;102345.47;10185456;28;20541;-63
2022/04/30 19:42:01;;;;;;;10.65;4.80;;;;;;;11.40;100.00;102343.91;10183442;28;20058;-62
2022/04/30 19:46:57;;;;;;;14.55;6.53;;;;;;;11.40;100.00;102343.91;10187486;28;20530;-63
2022/04/30 19:51:54;;;;;;;9.65;4.20;;;;;;;11.22;100.00;102336.34;10185472;28;20116;-62
2022/04/30 19:56:52;;;;;;;11.48;5.05;;;;;;;11.10;100.00;102340.25;10191182;28;20046;-62
2022/04/30 20:01:48;;;;;;;11.32;5.53;;;;;;;11.13;100.00;102345.16;10181625;28;20086;-63
2022/04/30 20:06:45;;;;;;;14.18;6.45;;;;;;;11.20;100.00;102344.84;10189790;28;20133;-63
2022/04/30 20:17:02;;;;;;;12.95;4.35;;;;;;;10.82;100.00;102352.69;10187826;28;20491;-63
2022/04/30 20:22:00;;;;;;;14.45;5.45;;;;;;;10.79;100.00;102349.69;10159768;28;20133;-62
2022/04/30 20:26:59;;;;;;;12.55;5.55;;;;;;;10.69;100.00;102347.81;10180595;28;20061;-62
2022/04/30 20:37:14;;;;;;;12.85;5.43;;;;;;;10.44;100.00;102337.75;10164701;28;20050;-63
2022/04/30 20:42:11;;;;;;;15.43;8.15;;;;;;;10.52;100.00;102345.41;10158533;28;20076;-63
2022/04/30 20:47:08;;;;;;;12.25;5.05;;;;;;;10.55;100.00;102350.31;10161530;28;20070;-62
2022/04/30 20:52:06;;;;;;;10.88;6.00;;;;;;;10.43;100.00;102358.00;10158624;28;20046;-61
2022/04/30 20:57:03;;;;;;;15.48;6.60;;;;;;;10.56;100.00;102351.13;10158777;28;20074;-62
2022/04/30 21:01:59;;;;;;;15.40;6.82;;;;;;;10.55;100.00;102355.78;10157175;28;20129;-62
2022/04/30 21:06:56;;;;;;;14.15;7.00;;;;;;;10.31;100.00;102363.75;10188872;28;20046;-61
2022/04/30 21:11:52;;;;;;;17.88;7.07;;;;;;;10.27;100.00;102355.25;10173009;28;20077;-62
2022/04/30 21:16:49;;;;;;;12.82;6.00;;;;;;;10.24;100.00;102350.34;10193345;28;20065;-61
2022/04/30 21:21:45;;;;;;;15.95;6.22;;;;;;;10.28;100.00;102351.47;10170206;28;20081;-62
2022/04/30 21:26:42;;;;;;;16.35;5.97;;;;;;;10.24;100.00;102355.81;10186717;28;20519;-62
2022/04/30 21:31:38;;;;;;;14.95;6.10;;;;;;;10.15;100.00;102365.66;10159954;28;20066;-62
2022/04/30 21:36:35;;;;;;;17.73;6.78;;;;;;;9.95;100.00;102363.75;10182826;28;20594;-63
2022/04/30 21:47:05;;;;;;;13.07;6.10;;;;;;;9.93;100.00;102356.91;10128807;28;20133;-62
2022/04/30 21:52:02;;;;;;;12.38;5.68;;;;;;;9.99;100.00;102347.63;10156222;28;20516;-62
2022/04/30 22:02:13;;;;;;;16.52;7.40;;;;;;;10.09;100.00;102326.59;10155837;28;20042;-62
2022/04/30 22:07:11;;;;;;;13.27;6.88;;;;;;;10.03;100.00;102321.41;10179497;28;20053;-61
2022/04/30 22:12:08;;;;;;;17.55;7.75;;;;;;;10.04;100.00;102333.97;10183756;28;20049;-62
2022/04/30 22:17:04;;;;;;;13.93;7.70;;;;;;;10.01;100.00;102329.06;10181429;28;20073;-62
2022/04/30 22:22:01;;;;;;;18.33;8.13;;;;;;;9.97;100.00;102336.16;10161837;28;20496;-62
2022/04/30 22:26:57;;;;;;;17.50;8.27;;;;;;;9.99;100.00;102336.69;10165465;28;20464;-64
2022/04/30 22:31:55;;;;;;;20.33;9.45;;;;;;;9.94;100.00;102347.63;10174957;28;20070;-63
2022/04/30 22:36:52;;;;;;;20.35;9.00;;;;;;;9.85;100.00;102345.44;10184245;28;20108;-63
2022/04/30 22:47:04;;;;;;;18.90;8.55;;;;;;;9.80;100.00;102344.63;10177915;28;20054;-62
2022/04/30 22:52:00;;;;;;;22.50;9.20;;;;;;;9.57;100.00;102356.91;10175804;28;20495;-62
2022/04/30 22:57:00;;;;;;;16.98;8.32;;;;;;;9.52;100.00;102354.16;10173053;28;20052;-62
2022/04/30 23:01:57;;;;;;;20.15;9.73;;;;;;;9.42;100.00;102354.94;10172888;28;20092;-62
2022/04/30 23:06:54;;;;;;;19.35;8.93;;;;;;;9.22;100.00;102350.28;10177515;28;20074;-63
2022/04/30 23:11:50;;;;;;;19.48;9.00;;;;;;;9.23;100.00;102351.91;10180113;28;20501;-64
2022/04/30 23:16:46;;;;;;;14.15;8.82;;;;;;;9.17;100.00;102353.00;10172940;28;20081;-64
2022/04/30 23:21:43;;;;;;;16.67;9.07;;;;;;;8.99;100.00;102341.47;10182311;28;20808;-63
2022/04/30 23:26:39;;;;;;;15.95;8.27;;;;;;;8.97;100.00;102342.81;10186925;28;20124;-63
2022/04/30 23:31:36;;;;;;;16.83;9.60;;;;;;;8.98;100.00;102339.84;10195773;28;20137;-63
2022/04/30 23:36:32;;;;;;;15.75;8.63;;;;;;;8.95;100.00;102337.63;10186643;28;20046;-63
2022/04/30 23:41:29;;;;;;;15.05;9.40;;;;;;;8.78;100.00;102337.03;10196468;28;20081;-63
2022/04/30 23:46:28;;;;;;;18.92;8.00;;;;;;;8.80;100.00;102337.56;10187310;28;20073;-64
2022/04/30 23:51:25;;;;;;;18.85;8.50;;;;;;;8.71;100.00;102336.44;10157099;28;20061;-64
2022/04/30 23:56:21;;;;;;;18.77;8.82;;;;;;;8.63;100.00;102338.59;10173538;28;20042;-63
